Time;durP1;ratioP1;P1;durP2;ratioP2;P2;SDS_P1;SDS_P2;PMS_P1;PMS_P2;Temp;Humidity;BMP_temperature;BMP_pressure;BME280_temperature;BME280_humidity;BME280_pressure;Samples;Min_cycle;Max_cycle;Signal;HPM_P1;HPM_P2
2022/06/11 00:01:19;;;;;;;1.25;1.10;;;24.50;44.60;;;28.25;29.11;101723.78;5096857;28;20052;-12
2022/06/11 00:03:47;;;;;;;1.95;1.23;;;24.50;44.60;;;28.22;29.47;101718.63;5114289;28;20498;-12
2022/06/11 00:06:13;;;;;;;1.45;1.30;;;24.40;44.60;;;28.24;29.30;101718.50;5113821;28;20040;-13
2022/06/11 00:08:39;;;;;;;1.77;1.13;;;24.40;44.60;;;28.26;29.22;101724.63;5113886;28;20062;-12
2022/06/11 00:11:09;;;;;;;1.35;1.20;;;24.40;44.60;;;28.26;29.39;101717.41;5113749;28;20054;-12
2022/06/11 00:13:35;;;;;;;1.50;1.20;;;24.50;44.70;;;28.28;29.18;101718.16;5114017;28;20051;-12
2022/06/11 00:16:01;;;;;;;1.27;1.17;;;24.40;44.60;;;28.24;29.56;101716.66;5114011;28;20047;-13
2022/06/11 00:18:29;;;;;;;1.55;1.10;;;24.40;44.60;;;28.27;29.39;101721.81;5113676;28;20475;-12
2022/06/11 00:20:55;;;;;;;2.05;1.33;;;24.40;44.60;;;28.26;29.27;101724.63;5113540;28;20048;-12
2022/06/11 00:23:21;;;;;;;2.38;1.25;;;24.40;44.60;;;28.28;29.11;101717.28;5114195;28;20058;-12
2022/06/11 00:25:47;;;;;;;1.40;1.30;;;24.40;44.60;;;28.23;29.21;101706.91;5113613;28;20492;-12
2022/06/11 00:28:13;;;;;;;1.08;1.00;;;24.40;44.60;;;28.24;29.50;101715.81;5113792;28;20048;-12
2022/06/11 00:30:39;;;;;;;1.15;1.10;;;24.40;44.60;;;28.26;29.39;101714.72;5113828;28;20116;-12
2022/06/11 00:33:06;;;;;;;2.15;1.20;;;24.50;44.70;;;28.24;29.49;101713.13;5113482;28;20472;-12
2022/06/11 00:35:35;;;;;;;2.05;1.42;;;24.40;44.70;;;28.25;29.45;101709.44;5114021;28;20048;-12
2022/06/11 00:38:02;;;;;;;1.60;1.23;;;24.40;44.70;;;28.21;29.58;101706.16;5113437;28;20050;-12
2022/06/11 00:40:30;;;;;;;1.08;1.00;;;24.40;44.70;;;28.24;29.33;101711.28;5113365;28;20126;-12
2022/06/11 00:42:56;;;;;;;1.92;1.33;;;24.40;44.70;;;28.25;29.37;101707.63;5113363;28;20055;-12
2022/06/11 00:45:38;;;;;;;1.60;1.23;;;24.40;44.70;;;28.26;29.36;101708.47;5113726;28;20051;-12
2022/06/11 00:48:16;;;;;;;1.20;1.10;;;24.40;44.70;;;28.21;29.57;101699.94;5112990;28;20047;-12
2022/06/11 00:50:48;;;;;;;1.60;1.33;;;24.40;44.70;;;28.24;29.36;101700.53;5112242;28;20059;-12
2022/06/11 00:53:35;;;;;;;1.73;1.27;;;24.40;44.70;;;28.24;29.62;101705.06;5078139;28;20043;-12
2022/06/11 00:56:04;;;;;;;1.45;1.35;;;24.40;44.80;;;28.23;29.63;101697.97;5094899;28;20203;-12
2022/06/11 00:58:38;;;;;;;1.90;1.30;;;24.40;44.80;;;28.21;29.23;101699.94;5111574;28;20396;-12
2022/06/11 01:01:05;;;;;;;1.63;1.20;;;24.40;44.80;;;28.25;29.43;101713.03;5095483;28;20044;-12
2022/06/11 01:03:42;;;;;;;1.45;1.27;;;24.40;44.80;;;28.20;29.71;101703.59;5113110;28;20047;-12
2022/06/11 01:06:39;;;;;;;1.50;1.40;;;24.40;44.80;;;28.23;29.34;101706.91;5113102;28;20519;-12
2022/06/11 01:09:21;;;;;;;1.60;1.17;;;24.40;44.80;;;28.20;29.25;101700.91;5112906;28;20395;-12
2022/06/11 01:12:36;;;;;;;2.17;1.25;;;24.40;44.80;;;28.21;29.65;101700.78;5094972;28;20360;-12
2022/06/11 01:15:14;;;;;;;1.30;1.20;;;24.40;44.90;;;28.23;29.64;101708.72;5013745;28;20061;-12
2022/06/11 01:18:04;;;;;;;2.42;1.30;;;24.40;44.90;;;28.18;29.55;101700.16;5030309;28;20053;-12
2022/06/11 01:20:50;;;;;;;1.88;1.30;;;24.40;44.90;;;28.22;29.64;101710.56;5030191;28;20428;-12
2022/06/11 01:23:33;;;;;;;1.10;1.00;;;24.40;44.90;;;28.21;29.41;101716.06;5080299;28;20076;-12
2022/06/11 01:26:53;;;;;;;1.33;1.23;;;24.40;44.90;;;28.18;29.41;101700.16;5112781;28;20434;-12
2022/06/11 01:30:08;;;;;;;1.30;1.20;;;24.40;44.90;;;28.22;29.45;101701.66;5094148;28;20047;-12
2022/06/11 01:33:10;;;;;;;1.73;1.50;;;24.40;44.90;;;28.20;29.70;101692.84;5013999;28;20115;-12
2022/06/11 01:36:28;;;;;;;2.13;1.52;;;24.40;44.90;;;28.22;29.64;101690.91;5055025;28;20071;-12
2022/06/11 01:39:25;;;;;;;1.85;1.30;;;24.40;45.00;;;28.21;29.71;101687.34;5079168;28;20047;-12
2022/06/11 01:42:03;;;;;;;1.90;1.45;;;24.40;45.00;;;28.17;29.73;101685.03;5093759;28;20534;-12
2022/06/11 01:44:37;;;;;;;1.55;1.20;;;24.40;45.00;;;28.18;29.73;101684.03;5094610;28;20479;-12
2022/06/11 01:47:04;;;;;;;1.13;1.02;;;24.40;45.00;;;28.17;29.40;101680.50;5112436;28;20062;-12
2022/06/11 01:49:33;;;;;;;1.80;1.50;;;24.40;45.00;;;28.18;29.66;101674.13;5112365;28;20048;-12
2022/06/11 01:52:59;;;;;;;2.03;1.13;;;24.40;45.00;;;28.20;29.80;101676.69;5112526;28;20082;-12
2022/06/11 01:56:09;;;;;;;1.65;1.05;;;24.40;45.00;;;28.20;29.75;101671.31;5095053;28;20074;-12
2022/06/11 01:59:26;;;;;;;1.65;1.45;;;24.40;45.00;;;28.20;29.80;101672.19;5012927;28;20053;-12
2022/06/11 02:02:29;;;;;;;1.42;1.27;;;24.30;45.00;;;28.16;29.60;101665.34;5115918;28;20605;-12
2022/06/11 02:05:30;;;;;;;2.35;1.60;;;24.30;45.00;;;28.13;29.59;101651.28;5116127;28;20414;-12
2022/06/11 02:08:14;;;;;;;1.48;1.20;;;24.30;45.10;;;28.10;29.59;101652.41;5097386;28;20052;-12
2022/06/11 02:10:55;;;;;;;1.38;1.27;;;24.30;45.10;;;28.12;29.51;101654.94;5114498;28;20448;-12
2022/06/11 02:13:34;;;;;;;2.00;1.30;;;24.30;45.10;;;28.17;29.76;101652.78;5114766;28;20487;-12
2022/06/11 02:16:10;;;;;;;1.42;1.10;;;24.30;45.10;;;28.17;29.64;101655.47;5097504;28;20737;-12
2022/06/11 02:18:39;;;;;;;1.77;1.40;;;24.30;45.10;;;28.14;29.52;101647.63;5095888;28;20044;-12
2022/06/11 02:21:11;;;;;;;1.52;1.25;;;24.30;45.10;;;28.09;29.60;101642.63;5097645;28;20387;-12
2022/06/11 02:23:43;;;;;;;1.55;1.45;;;24.30;45.10;;;28.15;29.77;101650.19;5097337;28;20484;-12
2022/06/11 02:26:19;;;;;;;1.55;1.10;;;24.30;45.10;;;28.14;29.66;101651.16;5115862;28;20047;-12
2022/06/11 02:28:47;;;;;;;1.67;1.42;;;24.30;45.10;;;28.15;29.99;101652.00;5115595;28;20056;-12
2022/06/11 02:31:18;;;;;;;2.42;1.30;;;24.30;45.10;;;28.06;29.63;101646.41;5114469;28;20039;-12
2022/06/11 02:33:45;;;;;;;1.30;1.20;;;24.30;45.10;;;28.13;29.54;101651.28;5114515;28;20142;-12
2022/06/11 02:36:10;;;;;;;1.20;1.10;;;24.30;45.10;;;28.16;29.84;101651.91;5115432;28;20576;-12
2022/06/11 02:38:37;;;;;;;1.30;1.20;;;24.30;45.10;;;28.17;29.54;101663.53;5115356;28;20075;-12
2022/06/11 02:41:08;;;;;;;2.67;1.45;;;24.30;45.10;;;28.09;29.54;101656.91;5115614;28;20051;-12
2022/06/11 02:43:34;;;;;;;2.00;1.30;;;24.30;45.10;;;28.17;29.80;101663.53;5115415;28;20139;-12
2022/06/11 02:46:40;;;;;;;1.40;1.30;;;24.30;45.10;;;28.11;29.83;101654.09;5114986;28;20399;-12
2022/06/11 02:48:52;;;;;;;2.08;1.38;;;24.30;45.10;;;28.13;29.89;101659.34;5115025;28;20550;-12
2022/06/11 02:51:20;;;;;;;1.40;1.30;;;24.30;45.10;;;28.12;29.85;101658.50;5115182;28;20040;-12
2022/06/11 02:53:46;;;;;;;1.27;1.17;;;24.30;45.10;;;28.16;29.63;101661.81;5115616;28;20455;-12
2022/06/11 02:56:13;;;;;;;1.48;1.23;;;24.30;45.20;;;28.15;29.78;101657.38;5115221;28;20395;-12
2022/06/11 02:58:40;;;;;;;2.15;1.20;;;24.30;45.20;;;28.15;29.72;101663.66;5115034;28;20047;-12
2022/06/11 03:01:06;;;;;;;1.30;1.13;;;24.30;45.20;;;28.16;29.88;101659.13;5097363;28;20043;-12
2022/06/11 03:03:32;;;;;;;1.33;1.20;;;24.30;45.20;;;28.09;29.63;101656.06;5115260;28;20093;-12
2022/06/11 03:06:01;;;;;;;1.70;1.33;;;24.30;45.20;;;28.13;29.86;101660.19;5114880;28;20079;-12
2022/06/11 03:08:27;;;;;;;2.30;1.50;;;24.30;45.20;;;28.15;29.72;101668.16;5114888;28;20039;-12
2022/06/11 03:10:56;;;;;;;1.25;1.15;;;24.30;45.20;;;28.10;29.77;101657.78;5114609;28;20096;-12
2022/06/11 03:13:27;;;;;;;2.25;1.45;;;24.30;45.20;;;28.11;29.93;101659.47;5114342;28;20043;-12
2022/06/11 03:15:53;;;;;;;;;;;24.30;45.20;;;28.22;29.54;101662.16;5115389;28;20043;-12
2022/06/11 03:18:20;;;;;;;2.50;1.65;;;24.30;45.20;;;28.15;29.52;101652.91;5114693;28;20000;-12
2022/06/11 03:20:46;;;;;;;1.30;1.20;;;24.30;45.20;;;28.18;29.78;101666.06;5114459;28;20055;-12
2022/06/11 03:23:13;;;;;;;1.40;1.30;;;24.30;45.20;;;28.14;29.75;101663.78;5114567;28;20093;-12
2022/06/11 03:25:39;;;;;;;1.13;1.10;;;24.30;45.20;;;28.12;29.97;101658.50;5114530;28;20434;-12
2022/06/11 03:28:13;;;;;;;1.50;1.17;;;24.30;45.20;;;28.11;29.94;101661.31;5114590;28;20539;-12
2022/06/11 03:30:39;;;;;;;1.45;1.35;;;24.30;45.20;;;28.08;29.95;101654.34;5115088;28;20074;-12
2022/06/11 03:33:05;;;;;;;1.45;1.30;;;24.30;45.20;;;28.14;29.83;101664.63;5114770;28;20411;-12
2022/06/11 03:35:33;;;;;;;2.17;1.42;;;24.30;45.20;;;28.09;29.88;101662.28;5114493;28;20085;-12
2022/06/11 03:38:00;;;;;;;2.17;1.52;;;24.30;45.20;;;28.14;29.63;101658.38;5114391;28;20044;-12
2022/06/11 03:40:27;;;;;;;1.67;1.50;;;24.30;45.20;;;28.11;29.76;101655.94;5114198;28;20372;-12
2022/06/11 03:42:54;;;;;;;2.25;1.40;;;24.30;45.30;;;28.09;29.85;101659.59;5114612;28;20048;-12
2022/06/11 03:45:21;;;;;;;1.40;1.30;;;24.30;45.20;;;28.12;30.02;101655.81;5114475;28;20131;-12
2022/06/11 03:47:48;;;;;;;1.92;1.42;;;24.30;45.20;;;28.15;29.88;101665.47;5114708;28;20044;-12
2022/06/11 03:50:29;;;;;;;1.50;1.17;;;24.30;45.30;;;28.09;30.15;101659.59;5114188;28;20048;-12
2022/06/11 03:52:57;;;;;;;1.38;1.27;;;24.30;45.30;;;28.12;29.72;101661.19;5114839;28;20477;-12
2022/06/11 03:55:24;;;;;;;1.48;1.38;;;24.30;45.20;;;28.11;29.87;101654.09;5096398;28;20082;-12
2022/06/11 03:57:52;;;;;;;1.45;1.35;;;24.30;45.20;;;28.15;30.01;101662.78;5114546;28;20051;-12
2022/06/11 04:03:11;;;;;;;1.40;1.30;;;24.30;45.20;;;28.16;29.62;101665.34;5114627;28;20127;-12
2022/06/11 04:05:40;;;;;;;1.50;1.40;;;24.30;45.20;;;28.16;30.05;101665.34;5114144;28;20403;-12
2022/06/11 04:08:07;;;;;;;1.52;1.30;;;24.40;45.20;;;28.14;30.00;101659.22;5095434;28;20058;-13
2022/06/11 04:10:34;;;;;;;1.95;1.35;;;24.30;45.20;;;28.14;29.85;101659.22;5113913;28;20049;-12
2022/06/11 04:13:00;;;;;;;1.30;1.20;;;24.40;45.20;;;28.13;29.82;101657.50;5113874;28;20063;-12
2022/06/11 04:15:26;;;;;;;1.17;1.00;;;24.40;45.20;;;28.21;29.90;101684.66;5113788;28;20062;-12
2022/06/11 04:17:53;;;;;;;1.30;1.20;;;24.40;45.10;;;28.19;29.72;101675.84;5114319;28;20051;-12
2022/06/11 04:20:19;;;;;;;1.38;1.27;;;24.50;45.10;;;28.24;29.76;101687.09;5094470;28;20048;-12
2022/06/11 04:22:45;;;;;;;1.45;1.20;;;24.50;45.00;;;28.21;29.81;101673.88;5113643;28;20502;-12
2022/06/11 04:25:17;;;;;;;1.88;1.30;;;24.50;45.00;;;28.27;29.90;101676.09;5113154;28;20051;-12
2022/06/11 04:27:44;;;;;;;1.60;1.50;;;24.50;44.90;;;28.28;29.85;101675.13;5111037;28;20072;-12
2022/06/11 04:30:14;;;;;;;1.35;1.00;;;24.50;44.80;;;28.29;29.81;101673.28;5113867;28;20488;-12
2022/06/11 04:32:40;;;;;;;2.22;1.50;;;24.50;44.80;;;28.39;29.82;101681.47;5113936;28;20051;-12
2022/06/11 04:35:07;;;;;;;1.30;1.20;;;24.60;44.80;;;28.39;29.91;101670.72;5113447;28;20052;-12
2022/06/11 04:37:32;;;;;;;1.85;1.20;;;24.60;44.90;;;28.37;29.46;101668.13;5113350;28;20043;-12
2022/06/11 04:40:00;;;;;;;1.58;1.20;;;24.60;44.90;;;28.42;29.68;101681.22;5113610;28;20055;-12
2022/06/11 04:42:27;;;;;;;1.98;1.27;;;24.60;44.80;;;28.41;29.88;101674.97;5113315;28;20046;-12
2022/06/11 04:44:53;;;;;;;2.78;1.45;;;24.60;44.80;;;28.48;29.51;101680.69;5113175;28;20625;-12
2022/06/11 04:47:24;;;;;;;1.95;1.17;;;24.70;44.80;;;28.43;29.84;101675.72;5113387;28;20377;-12
2022/06/11 04:49:53;;;;;;;1.60;1.33;;;24.70;44.70;;;28.52;29.63;101682.19;5113816;28;20048;-12
2022/06/11 04:52:19;;;;;;;1.70;1.30;;;24.80;44.70;;;28.50;29.51;101673.38;5113206;28;20119;-12
2022/06/11 04:54:45;;;;;;;1.30;1.20;;;24.80;44.70;;;28.50;29.50;101670.69;5095025;28;20496;-12
2022/06/11 04:57:11;;;;;;;1.20;1.10;;;24.80;44.60;;;28.54;29.64;101672.13;5113228;28;20054;-12
2022/06/11 04:59:37;;;;;;;1.83;1.38;;;24.80;44.50;;;28.58;29.58;101679.00;5113055;28;20043;-12
2022/06/11 05:02:04;;;;;;;1.52;1.10;;;24.90;44.50;;;28.57;29.35;101674.63;5113037;28;20043;-12
2022/06/11 05:04:31;;;;;;;1.85;1.25;;;24.90;44.40;;;28.63;29.26;101687.56;5113042;28;20062;-12
2022/06/11 05:06:56;;;;;;;2.47;1.38;;;24.90;44.40;;;28.62;29.47;101680.47;5113637;28;20050;-12
2022/06/11 05:09:24;;;;;;;1.27;1.17;;;24.90;44.40;;;28.69;29.34;101688.06;5113071;28;20130;-12
2022/06/11 05:11:52;;;;;;;1.20;1.10;;;25.00;44.30;;;28.70;29.53;101678.97;5111755;28;20054;-12
2022/06/11 05:14:18;;;;;;;2.17;1.27;;;25.00;44.10;;;28.74;29.12;101681.28;5112926;28;20097;-12
2022/06/11 05:16:46;;;;;;;1.40;1.30;;;25.10;44.00;;;28.77;29.10;101674.81;5112855;28;20135;-12
2022/06/11 05:19:16;;;;;;;1.50;1.40;;;25.10;43.90;;;28.83;29.01;101682.34;5113430;28;20054;-12
2022/06/11 05:21:42;;;;;;;1.40;1.30;;;25.20;43.90;;;28.88;29.22;101684.69;5094664;28;20052;-12
2022/06/11 05:24:09;;;;;;;1.52;1.20;;;25.20;43.80;;;28.91;28.99;101687.97;5112718;28;20040;-12
2022/06/11 05:26:44;;;;;;;2.05;1.10;;;25.20;43.70;;;28.95;28.84;101688.56;5112837;28;20062;-12
2022/06/11 05:29:20;;;;;;;1.52;1.30;;;25.30;43.60;;;28.98;29.12;101697.22;5094379;28;20048;-12
2022/06/11 05:31:45;;;;;;;1.50;1.33;;;25.30;43.50;;;29.01;28.81;101698.81;5095028;28;20399;-12
2022/06/11 05:34:11;;;;;;;1.63;1.23;;;25.40;43.50;;;29.01;28.83;101693.44;5112734;28;20055;-12
2022/06/11 05:36:37;;;;;;;2.00;1.17;;;25.40;43.50;;;29.05;29.02;101699.41;5116450;28;20126;-12
2022/06/11 05:39:03;;;;;;;1.52;1.15;;;25.40;43.50;;;29.07;28.73;101694.75;5116200;28;20054;-12
2022/06/11 05:41:29;;;;;;;1.80;1.30;;;25.30;43.50;;;29.07;28.65;101701.00;5116853;28;20126;-12
2022/06/11 05:43:54;;;;;;;1.60;1.08;;;25.30;43.50;;;29.09;28.94;101700.88;5116096;28;20035;-12
2022/06/11 05:46:24;;;;;;;1.45;1.17;;;25.40;43.50;;;29.06;28.86;101698.44;5116150;28;21423;-12
2022/06/11 05:48:58;;;;;;;1.92;1.42;;;25.40;43.50;;;29.11;28.62;101702.44;5116082;28;20092;-12
2022/06/11 05:51:31;;;;;;;1.30;1.20;;;25.50;43.40;;;29.19;28.67;101704.53;5098276;28;20173;-12
2022/06/11 05:53:58;;;;;;;2.50;1.30;;;25.50;43.30;;;29.20;28.68;101695.47;5115929;28;20100;-12
2022/06/11 05:56:24;;;;;;;1.23;1.13;;;25.60;43.30;;;29.26;28.54;101694.09;5097503;28;20044;-12
2022/06/11 05:59:04;;;;;;;1.33;1.23;;;25.60;43.20;;;29.28;28.85;101695.66;5097900;28;20051;-12
2022/06/11 06:01:36;;;;;;;1.33;1.23;;;25.60;43.10;;;29.33;28.54;101692.59;5116422;28;20040;-12
2022/06/11 06:04:01;;;;;;;1.55;1.20;;;25.70;43.10;;;29.41;28.33;101694.66;5097509;28;20040;-12
2022/06/11 06:06:27;;;;;;;1.27;1.17;;;25.70;43.00;;;29.44;28.52;101689.00;5115697;28;20101;-12
2022/06/11 06:08:53;;;;;;;2.00;1.45;;;25.70;43.00;;;29.44;28.48;101689.00;5115542;28;20075;-12
2022/06/11 06:11:18;;;;;;;1.50;1.40;;;25.70;43.00;;;29.40;28.20;101683.00;5115839;28;20044;-12
2022/06/11 06:13:47;;;;;;;1.20;1.10;;;25.70;43.00;;;29.44;28.57;101691.69;5115780;28;20086;-12
2022/06/11 06:16:22;;;;;;;1.42;1.30;;;25.70;43.00;;;29.40;28.34;101698.31;5115735;28;20052;-12
2022/06/11 06:18:49;;;;;;;1.38;1.27;;;25.70;43.10;;;29.45;28.36;101705.00;5115656;28;20054;-12
2022/06/11 06:21:20;;;;;;;1.17;1.08;;;25.70;43.10;;;29.43;28.19;101706.13;5115628;28;20051;-12
2022/06/11 06:23:46;;;;;;;1.40;1.30;;;25.70;43.20;;;29.41;28.36;101708.97;5116144;28;20042;-12
2022/06/11 06:26:12;;;;;;;1.58;1.48;;;25.60;43.20;;;29.45;28.53;101712.25;5115429;28;20048;-12
2022/06/11 06:28:38;;;;;;;1.30;1.20;;;25.70;43.10;;;29.44;28.50;101706.00;5115285;28;20091;-13
2022/06/11 06:31:06;;;;;;;1.88;1.20;;;25.70;43.00;;;29.46;28.21;101709.41;5116098;28;20046;-12
2022/06/11 06:33:33;;;;;;;1.20;1.10;;;25.80;43.00;;;29.56;28.23;101710.34;5115413;28;20043;-12
2022/06/11 06:36:01;;;;;;;1.30;1.20;;;25.90;42.90;;;29.60;28.27;101704.69;5113739;28;20077;-12
2022/06/11 06:38:27;;;;;;;1.60;1.20;;;25.90;42.80;;;29.62;28.04;101702.72;5115347;28;20056;-12
2022/06/11 06:40:53;;;;;;;1.95;1.35;;;26.00;42.70;;;29.72;28.14;101717.97;5115311;28;20052;-12
2022/06/11 06:43:20;;;;;;;1.55;1.15;;;26.10;42.60;;;29.72;28.16;101712.56;5115710;28;20372;-12
2022/06/11 06:45:46;;;;;;;0.98;0.98;;;26.10;42.50;;;29.76;28.15;101721.25;5114980;28;20485;-12
2022/06/11 06:48:13;;;;;;;1.83;1.30;;;26.20;42.50;;;29.83;27.92;101724.31;5114598;28;20047;-12
2022/06/11 06:50:38;;;;;;;1.85;1.45;;;26.20;42.50;;;29.78;27.91;101718.47;5115331;28;20105;-12
2022/06/11 06:53:04;;;;;;;1.17;0.98;;;26.10;42.50;;;29.77;27.88;101709.53;5115008;28;20052;-12
2022/06/11 06:55:30;;;;;;;1.30;1.20;;;26.10;42.60;;;29.80;27.90;101721.88;5115111;28;20055;-12
2022/06/11 06:57:57;;;;;;;2.20;1.50;;;26.00;42.60;;;29.77;27.95;101717.63;5114949;28;20050;-12
2022/06/11 07:00:23;;;;;;;1.27;1.17;;;26.00;42.80;;;29.75;28.02;101717.72;5115176;28;20482;-12
2022/06/11 07:02:53;;;;;;;1.30;1.15;;;25.90;42.90;;;29.69;28.21;101703.91;5114872;28;20059;-12
2022/06/11 07:05:22;;;;;;;1.45;1.17;;;25.90;43.50;;;29.70;28.11;101719.06;5115163;28;20043;-12
2022/06/11 07:07:49;;;;;;;1.35;1.13;;;25.80;43.50;;;29.64;28.15;101711.53;5114772;28;20124;-12
2022/06/11 07:10:20;;;;;;;1.27;1.17;;;25.80;43.10;;;29.65;28.16;101722.16;5096639;28;20048;-12
2022/06/11 07:12:46;;;;;;;1.33;1.00;;;25.70;43.10;;;29.63;28.14;101724.13;5115146;28;20044;-12
2022/06/11 07:15:12;;;;;;;3.15;1.27;;;25.70;43.20;;;29.55;28.12;101723.94;5114781;28;20052;-12
2022/06/11 07:17:46;;;;;;;1.15;1.08;;;25.70;43.30;;;29.54;28.20;101733.03;5114545;28;20126;-12
2022/06/11 07:20:19;;;;;;;1.50;1.20;;;25.60;43.30;;;29.50;28.31;101716.28;5094895;28;20055;-12
2022/06/11 07:22:53;;;;;;;1.23;1.13;;;25.60;43.30;;;29.52;28.16;101727.78;5113677;28;20472;-12
2022/06/11 07:25:19;;;;;;;1.40;1.30;;;25.60;43.30;;;29.49;28.36;101719.09;5096234;28;20687;-12
2022/06/11 07:27:52;;;;;;;1.42;1.20;;;25.60;43.40;;;29.41;28.45;101719.75;5114391;28;20084;-12
2022/06/11 07:30:26;;;;;;;1.42;1.20;;;25.60;43.50;;;29.39;28.24;101719.03;5114770;28;20403;-12
2022/06/11 07:33:00;;;;;;;1.15;1.08;;;25.50;43.50;;;29.39;28.54;101724.41;5115079;28;20039;-12
2022/06/11 07:35:25;;;;;;;1.60;1.27;;;25.50;43.50;;;29.43;28.36;101733.94;5114398;28;20047;-12
2022/06/11 07:37:52;;;;;;;1.45;1.13;;;25.50;43.50;;;29.40;28.51;101725.25;5095919;28;20452;-12
2022/06/11 07:40:19;;;;;;;1.50;1.20;;;25.60;43.60;;;29.39;28.25;101721.72;5114146;28;20069;-12
2022/06/11 07:42:45;;;;;;;1.50;1.13;;;25.50;43.50;;;29.40;28.50;101726.09;5114344;28;20047;-12
2022/06/11 07:45:12;;;;;;;1.30;1.10;;;25.50;43.60;;;29.34;28.44;101724.78;5094352;28;20052;-12
2022/06/11 07:47:53;;;;;;;1.20;1.10;;;25.40;43.60;;;29.35;28.33;101721.13;5114368;28;20100;-12
2022/06/11 07:50:36;;;;;;;1.25;1.15;;;25.50;43.60;;;29.39;28.50;101716.31;5114361;28;20052;-12
2022/06/11 07:53:04;;;;;;;1.00;1.00;;;25.60;43.40;;;29.45;28.16;101714.94;5114109;28;20388;-12
2022/06/11 07:55:32;;;;;;;1.23;1.13;;;25.70;43.20;;;29.53;28.38;101721.38;5114158;28;20051;-12
2022/06/11 07:57:59;;;;;;;1.30;1.20;;;25.80;43.10;;;29.57;28.34;101711.22;5113482;28;20132;-12
2022/06/11 08:00:36;;;;;;;1.35;1.25;;;25.90;43.00;;;29.62;28.17;101718.88;5114075;28;20049;-12
2022/06/11 08:03:03;;;;;;;0.98;0.98;;;25.90;42.90;;;29.64;28.21;101712.38;5113987;28;20051;-12
2022/06/11 08:05:29;;;;;;;1.30;1.20;;;26.00;42.80;;;29.72;28.00;101723.38;5114260;28;20070;-12
2022/06/11 08:07:54;;;;;;;0.90;0.90;;;26.00;42.70;;;29.73;27.97;101719.66;5113780;28;20047;-12
2022/06/11 08:10:25;;;;;;;1.08;1.00;;;26.00;42.70;;;29.74;27.97;101723.22;5113814;28;20047;-12
2022/06/11 08:12:50;;;;;;;2.08;1.50;;;26.10;42.80;;;29.84;27.89;101723.31;5113824;28;20047;-12
2022/06/11 08:15:20;;;;;;;1.45;1.20;;;26.10;42.70;;;29.86;27.91;101724.03;5113820;28;20052;-12
2022/06/11 08:17:47;;;;;;;1.63;1.20;;;26.10;42.60;;;29.85;27.75;101723.16;5113563;28;20043;-12
2022/06/11 08:20:19;;;;;;;1.15;0.95;;;26.10;42.50;;;29.87;27.77;101720.34;5113904;28;20048;-12
2022/06/11 08:22:45;;;;;;;1.45;1.20;;;26.10;42.50;;;29.89;27.67;101721.09;5113296;28;20471;-12
2022/06/11 08:25:11;;;;;;;1.73;1.27;;;26.10;42.60;;;29.92;27.67;101718.97;5113480;28;20067;-12
2022/06/11 08:27:37;;;;;;;1.23;1.13;;;26.10;42.60;;;29.95;27.65;101722.38;5113589;28;20464;-12
2022/06/11 08:30:04;;;;;;;2.03;1.30;;;26.10;42.60;;;29.91;27.72;101716.41;5113551;28;20504;-12
2022/06/11 08:32:30;;;;;;;1.13;1.02;;;26.10;42.70;;;29.86;27.71;101714.09;5113835;28;20043;-12
2022/06/11 08:34:56;;;;;;;1.58;1.13;;;26.00;42.70;;;29.88;27.80;101722.06;5113422;28;20059;-12
2022/06/11 08:37:23;;;;;;;1.40;1.30;;;26.00;42.90;;;29.82;27.79;101709.97;5113424;28;20048;-12
2022/06/11 08:39:49;;;;;;;1.20;1.10;;;25.90;42.90;;;29.85;27.81;101719.63;5113684;28;20051;-12
2022/06/11 08:42:36;;;;;;;1.15;1.05;;;25.90;43.00;;;29.80;28.08;101724.56;5113961;28;20097;-12
2022/06/11 08:45:26;;;;;;;1.30;1.20;;;25.90;43.10;;;29.78;27.94;101721.16;5113077;28;20043;-12
2022/06/11 08:47:59;;;;;;;1.20;1.10;;;25.80;43.00;;;29.73;28.01;101730.44;5113067;28;20046;-12
2022/06/11 08:50:42;;;;;;;1.15;1.00;;;25.80;43.20;;;29.75;28.01;101719.53;5113609;28;20055;-12
2022/06/11 08:53:08;;;;;;;1.35;1.20;;;25.80;43.10;;;29.73;27.93;101708.03;5095002;28;20077;-12
2022/06/11 08:55:37;;;;;;;1.20;1.10;;;25.80;43.10;;;29.73;27.95;101716.97;5113354;28;20056;-12
2022/06/11 08:58:26;;;;;;;1.10;1.02;;;25.90;43.10;;;29.74;28.05;101715.16;5113068;28;20069;-12
2022/06/11 09:01:15;;;;;;;1.40;1.30;;;25.90;43.00;;;29.76;27.91;101718.56;5095235;28;20039;-12
2022/06/11 09:04:09;;;;;;;1.02;0.90;;;25.90;43.10;;;29.68;28.08;101710.28;5095254;28;20480;-12
2022/06/11 09:07:13;;;;;;;1.50;1.40;;;25.90;43.10;;;29.77;28.00;101719.41;5112827;28;20541;-12
2022/06/11 09:10:21;;;;;;;1.70;1.30;;;25.80;43.10;;;29.74;27.97;101721.38;5092131;28;20048;-12
2022/06/11 09:13:21;;;;;;;2.13;1.10;;;25.80;43.20;;;29.72;27.96;101733.25;5112702;28;20052;-12
2022/06/11 09:16:33;;;;;;;1.25;1.05;;;25.80;43.20;;;29.72;27.94;101719.78;5112905;28;20079;-12
2022/06/11 09:19:09;;;;;;;1.30;1.20;;;25.80;43.30;;;29.64;27.91;101722.31;5112862;28;20134;-12
2022/06/11 09:21:58;;;;;;;1.25;1.15;;;25.80;43.30;;;29.64;28.16;101738.50;5094876;28;20040;-12
2022/06/11 09:24:30;;;;;;;1.17;1.08;;;25.70;43.20;;;29.66;28.15;101725.72;5094523;28;20441;-12
2022/06/11 09:27:23;;;;;;;1.20;1.10;;;25.80;43.30;;;29.59;28.04;101716.44;5112710;28;20100;-12
2022/06/11 09:30:06;;;;;;;1.33;1.20;;;25.70;43.20;;;29.59;28.19;101717.31;5094224;28;20556;-12
2022/06/11 09:33:15;;;;;;;1.40;1.30;;;25.70;43.30;;;29.63;28.18;101734.06;5094358;28;20088;-12
2022/06/11 09:36:21;;;;;;;1.52;1.00;;;25.70;43.40;;;29.60;28.35;101734.34;5112825;28;20055;-12
2022/06/11 09:39:25;;;;;;;1.30;1.20;;;25.70;43.40;;;29.58;28.16;101742.53;5054918;28;20040;-12
2022/06/11 09:42:10;;;;;;;1.55;1.20;;;25.70;43.40;;;29.56;28.09;101739.97;5093232;28;20056;-12
2022/06/11 09:45:07;;;;;;;1.67;1.58;;;25.70;43.40;;;29.55;28.27;101735.59;5094251;28;20134;-12
2022/06/11 09:48:15;;;;;;;1.45;1.33;;;25.60;43.40;;;29.57;28.37;101743.56;5078899;28;20509;-12
2022/06/11 09:50:51;;;;;;;1.25;1.02;;;25.60;43.40;;;29.55;28.23;101745.50;5112523;28;20048;-12
2022/06/11 09:53:50;;;;;;;0.93;0.93;;;25.60;43.40;;;29.54;28.23;101749.19;5112663;28;20044;-12
2022/06/11 09:56:52;;;;;;;1.63;1.20;;;25.60;43.40;;;29.53;28.33;101751.00;5111273;28;20079;-12
2022/06/11 09:59:42;;;;;;;1.65;1.40;;;25.60;43.50;;;29.46;28.37;101741.75;5112549;28;20142;-12
2022/06/11 10:02:22;;;;;;;1.67;1.40;;;25.60;43.60;;;29.52;28.27;101761.91;5094265;28;20052;-12
2022/06/11 10:04:50;;;;;;;1.40;1.30;;;25.60;43.60;;;29.49;28.37;101760.34;5112564;28;20093;-12
2022/06/11 10:07:40;;;;;;;1.30;1.20;;;25.60;43.60;;;29.43;28.48;101752.78;5111962;28;20487;-12
2022/06/11 10:10:33;;;;;;;1.33;1.00;;;25.60;43.60;;;29.44;28.44;101746.44;5094530;28;20039;-12
2022/06/11 10:13:12;;;;;;;1.98;1.15;;;25.60;43.60;;;29.48;28.37;101764.03;5109064;28;20518;-12
2022/06/11 10:15:42;;;;;;;1.02;0.95;;;25.60;43.50;;;29.47;28.43;101748.88;5112166;28;20052;-12
2022/06/11 10:18:30;;;;;;;1.20;1.10;;;25.60;43.60;;;29.48;28.43;101764.03;5109607;28;20040;-12
2022/06/11 10:21:03;;;;;;;1.00;1.00;;;25.60;43.60;;;29.46;28.48;101770.53;5094653;28;20316;-12
2022/06/11 10:23:37;;;;;;;1.15;0.98;;;25.60;43.60;;;29.42;28.55;101755.59;5114253;28;20051;-12
2022/06/11 10:26:26;;;;;;;1.20;1.10;;;25.60;43.60;;;29.45;28.52;101764.28;5114187;28;20043;-12
2022/06/11 10:29:13;;;;;;;1.15;1.02;;;25.60;43.60;;;29.44;28.31;101767.13;5114017;28;20123;-12
2022/06/11 10:31:52;;;;;;;1.38;1.00;;;25.60;43.60;;;29.40;28.54;101769.19;5097271;28;20068;-12
2022/06/11 10:34:21;;;;;;;1.42;1.17;;;25.60;43.60;;;29.41;28.31;101767.38;5114354;28;20399;-12
2022/06/11 10:37:17;;;;;;;1.10;1.00;;;25.60;43.70;;;29.43;28.53;101779.72;5115667;28;20040;-12
2022/06/11 10:39:53;;;;;;;1.77;1.10;;;25.50;43.60;;;29.37;28.38;101762.25;5114812;28;20495;-12
2022/06/11 10:42:43;;;;;;;1.33;1.13;;;25.50;43.60;;;29.40;28.63;101771.91;5097532;28;20051;-12
2022/06/11 10:45:15;;;;;;;1.30;1.20;;;25.60;43.70;;;29.38;28.33;101772.03;5114801;28;20105;-12